sensor_id;sensor_type;location;lat;lon;timestamp;P1;durP1;ratioP1;P2;durP2;ratioP2
46563;SDS011;32291;52.010;4.446;2022-12-17T00:01:17;40.35;;;28.92;;
46563;SDS011;32291;52.010;4.446;2022-12-17T00:02:37;36.03;;;28.50;;
46563;SDS011;32291;52.010;4.446;2022-12-17T00:03:57;36.83;;;29.73;;
46563;SDS011;32291;52.010;4.446;2022-12-17T00:05:17;40.13;;;29.30;;
46563;SDS011;32291;52.010;4.446;2022-12-17T00:06:38;39.92;;;29.98;;
46563;SDS011;32291;52.010;4.446;2022-12-17T00:07:59;38.03;;;29.05;;
46563;SDS011;32291;52.010;4.446;2022-12-17T00:09:19;41.13;;;30.33;;
46563;SDS011;32291;52.010;4.446;2022-12-17T00:10:39;38.30;;;30.33;;
46563;SDS011;32291;52.010;4.446;2022-12-17T00:12:00;44.25;;;30.80;;
46563;SDS011;32291;52.010;4.446;2022-12-17T00:13:20;40.90;;;30.33;;
46563;SDS011;32291;52.010;4.446;2022-12-17T00:14:41;40.90;;;31.13;;
46563;SDS011;32291;52.010;4.446;2022-12-17T00:16:02;37.17;;;30.48;;
46563;SDS011;32291;52.010;4.446;2022-12-17T00:17:23;42.33;;;31.65;;
46563;SDS011;32291;52.010;4.446;2022-12-17T00:18:43;40.58;;;30.98;;
46563;SDS011;32291;52.010;4.446;2022-12-17T00:20:04;40.60;;;32.13;;
46563;SDS011;32291;52.010;4.446;2022-12-17T00:21:24;40.97;;;30.67;;
46563;SDS011;32291;52.010;4.446;2022-12-17T00:22:45;40.35;;;30.80;;
46563;SDS011;32291;52.010;4.446;2022-12-17T00:24:05;41.20;;;30.63;;
46563;SDS011;32291;52.010;4.446;2022-12-17T00:25:26;37.42;;;29.77;;
46563;SDS011;32291;52.010;4.446;2022-12-17T00:26:46;39.55;;;29.67;;
46563;SDS011;32291;52.010;4.446;2022-12-17T00:28:10;39.38;;;30.70;;
46563;SDS011;32291;52.010;4.446;2022-12-17T00:29:34;39.65;;;30.88;;
46563;SDS011;32291;52.010;4.446;2022-12-17T00:30:54;41.65;;;29.48;;
46563;SDS011;32291;52.010;4.446;2022-12-17T00:32:16;37.90;;;29.40;;
46563;SDS011;32291;52.010;4.446;2022-12-17T00:33:36;42.35;;;31.15;;
46563;SDS011;32291;52.010;4.446;2022-12-17T00:34:56;41.55;;;31.60;;
46563;SDS011;32291;52.010;4.446;2022-12-17T00:36:16;39.20;;;31.38;;
46563;SDS011;32291;52.010;4.446;2022-12-17T00:37:36;38.70;;;30.77;;
46563;SDS011;32291;52.010;4.446;2022-12-17T00:38:57;40.22;;;30.42;;
46563;SDS011;32291;52.010;4.446;2022-12-17T00:40:17;41.88;;;31.33;;
46563;SDS011;32291;52.010;4.446;2022-12-17T00:41:38;39.42;;;30.45;;
46563;SDS011;32291;52.010;4.446;2022-12-17T00:42:59;42.28;;;31.08;;
46563;SDS011;32291;52.010;4.446;2022-12-17T00:44:28;43.00;;;30.25;;
46563;SDS011;32291;52.010;4.446;2022-12-17T00:45:49;42.53;;;30.45;;
46563;SDS011;32291;52.010;4.446;2022-12-17T00:47:11;40.33;;;30.67;;
46563;SDS011;32291;52.010;4.446;2022-12-17T00:48:31;40.97;;;29.65;;
46563;SDS011;32291;52.010;4.446;2022-12-17T00:49:51;37.00;;;29.25;;
46563;SDS011;32291;52.010;4.446;2022-12-17T00:51:11;40.05;;;28.92;;
46563;SDS011;32291;52.010;4.446;2022-12-17T00:52:32;35.45;;;28.38;;
46563;SDS011;32291;52.010;4.446;2022-12-17T00:53:53;43.22;;;29.58;;
46563;SDS011;32291;52.010;4.446;2022-12-17T00:55:13;35.83;;;28.95;;
46563;SDS011;32291;52.010;4.446;2022-12-17T00:56:34;37.33;;;29.65;;
46563;SDS011;32291;52.010;4.446;2022-12-17T00:57:55;42.30;;;29.55;;
46563;SDS011;32291;52.010;4.446;2022-12-17T00:59:17;45.78;;;30.95;;
46563;SDS011;32291;52.010;4.446;2022-12-17T01:00:38;37.70;;;29.30;;
46563;SDS011;32291;52.010;4.446;2022-12-17T01:01:58;41.22;;;30.02;;
46563;SDS011;32291;52.010;4.446;2022-12-17T01:03:18;38.97;;;29.60;;
46563;SDS011;32291;52.010;4.446;2022-12-17T01:04:39;32.13;;;28.38;;
46563;SDS011;32291;52.010;4.446;2022-12-17T01:06:00;35.35;;;29.27;;
46563;SDS011;32291;52.010;4.446;2022-12-17T01:07:22;39.03;;;29.05;;
46563;SDS011;32291;52.010;4.446;2022-12-17T01:08:42;35.10;;;27.77;;
46563;SDS011;32291;52.010;4.446;2022-12-17T01:10:03;40.50;;;29.60;;
46563;SDS011;32291;52.010;4.446;2022-12-17T01:11:23;40.42;;;28.10;;
46563;SDS011;32291;52.010;4.446;2022-12-17T01:12:44;42.30;;;28.60;;
46563;SDS011;32291;52.010;4.446;2022-12-17T01:14:04;39.63;;;29.50;;
46563;SDS011;32291;52.010;4.446;2022-12-17T01:15:25;36.80;;;28.25;;
46563;SDS011;32291;52.010;4.446;2022-12-17T01:16:46;35.50;;;27.90;;
46563;SDS011;32291;52.010;4.446;2022-12-17T01:18:06;38.30;;;28.23;;
46563;SDS011;32291;52.010;4.446;2022-12-17T01:19:26;40.13;;;27.95;;
46563;SDS011;32291;52.010;4.446;2022-12-17T01:20:46;42.35;;;29.13;;
46563;SDS011;32291;52.010;4.446;2022-12-17T01:22:07;38.58;;;28.42;;
46563;SDS011;32291;52.010;4.446;2022-12-17T01:23:28;35.55;;;27.33;;
46563;SDS011;32291;52.010;4.446;2022-12-17T01:24:48;39.25;;;30.17;;
46563;SDS011;32291;52.010;4.446;2022-12-17T01:26:08;35.22;;;26.52;;
46563;SDS011;32291;52.010;4.446;2022-12-17T01:27:28;35.63;;;28.38;;
46563;SDS011;32291;52.010;4.446;2022-12-17T01:28:49;38.35;;;27.33;;
46563;SDS011;32291;52.010;4.446;2022-12-17T01:30:10;36.63;;;28.50;;
46563;SDS011;32291;52.010;4.446;2022-12-17T01:31:30;39.50;;;29.23;;
46563;SDS011;32291;52.010;4.446;2022-12-17T01:33:08;37.97;;;26.85;;
46563;SDS011;32291;52.010;4.446;2022-12-17T01:34:29;36.67;;;27.95;;
46563;SDS011;32291;52.010;4.446;2022-12-17T01:35:50;31.92;;;26.80;;
46563;SDS011;32291;52.010;4.446;2022-12-17T01:37:15;35.08;;;27.05;;
46563;SDS011;32291;52.010;4.446;2022-12-17T01:38:35;32.60;;;25.60;;
46563;SDS011;32291;52.010;4.446;2022-12-17T01:39:55;32.35;;;25.75;;
46563;SDS011;32291;52.010;4.446;2022-12-17T01:41:15;35.88;;;27.00;;
46563;SDS011;32291;52.010;4.446;2022-12-17T01:42:40;32.60;;;26.27;;
46563;SDS011;32291;52.010;4.446;2022-12-17T01:46:03;34.60;;;26.48;;
46563;SDS011;32291;52.010;4.446;2022-12-17T01:49:09;34.17;;;27.48;;
46563;SDS011;32291;52.010;4.446;2022-12-17T01:50:32;41.35;;;28.20;;
46563;SDS011;32291;52.010;4.446;2022-12-17T01:51:58;36.72;;;28.13;;
46563;SDS011;32291;52.010;4.446;2022-12-17T01:53:23;40.28;;;27.30;;
46563;SDS011;32291;52.010;4.446;2022-12-17T01:54:53;37.47;;;26.33;;
46563;SDS011;32291;52.010;4.446;2022-12-17T01:56:14;37.17;;;27.02;;
46563;SDS011;32291;52.010;4.446;2022-12-17T01:57:36;40.58;;;29.90;;
46563;SDS011;32291;52.010;4.446;2022-12-17T01:58:57;44.67;;;30.13;;
46563;SDS011;32291;52.010;4.446;2022-12-17T02:00:20;35.30;;;27.27;;
46563;SDS011;32291;52.010;4.446;2022-12-17T02:01:40;41.75;;;29.95;;
46563;SDS011;32291;52.010;4.446;2022-12-17T02:03:01;37.22;;;26.98;;
46563;SDS011;32291;52.010;4.446;2022-12-17T02:04:23;41.30;;;30.33;;
46563;SDS011;32291;52.010;4.446;2022-12-17T02:09:17;40.03;;;28.85;;
46563;SDS011;32291;52.010;4.446;2022-12-17T02:11:16;37.45;;;27.77;;
46563;SDS011;32291;52.010;4.446;2022-12-17T02:12:55;36.97;;;26.77;;
46563;SDS011;32291;52.010;4.446;2022-12-17T02:14:43;40.20;;;28.98;;
46563;SDS011;32291;52.010;4.446;2022-12-17T02:16:15;40.67;;;28.48;;
46563;SDS011;32291;52.010;4.446;2022-12-17T02:18:01;42.33;;;29.50;;
46563;SDS011;32291;52.010;4.446;2022-12-17T02:19:54;41.45;;;29.05;;
46563;SDS011;32291;52.010;4.446;2022-12-17T02:21:38;43.28;;;28.75;;
46563;SDS011;32291;52.010;4.446;2022-12-17T02:27:23;36.90;;;27.48;;
46563;SDS011;32291;52.010;4.446;2022-12-17T02:28:46;38.55;;;27.25;;
46563;SDS011;32291;52.010;4.446;2022-12-17T02:30:09;37.78;;;27.83;;
46563;SDS011;32291;52.010;4.446;2022-12-17T02:31:30;42.17;;;27.95;;
46563;SDS011;32291;52.010;4.446;2022-12-17T02:32:53;45.53;;;29.88;;
46563;SDS011;32291;52.010;4.446;2022-12-17T02:34:14;42.20;;;29.90;;
46563;SDS011;32291;52.010;4.446;2022-12-17T02:35:38;41.05;;;28.77;;
46563;SDS011;32291;52.010;4.446;2022-12-17T02:37:16;43.17;;;27.73;;
46563;SDS011;32291;52.010;4.446;2022-12-17T02:38:36;39.45;;;28.50;;
46563;SDS011;32291;52.010;4.446;2022-12-17T02:39:56;41.50;;;28.42;;
46563;SDS011;32291;52.010;4.446;2022-12-17T02:41:18;39.03;;;27.23;;
46563;SDS011;32291;52.010;4.446;2022-12-17T02:42:49;38.95;;;27.17;;
46563;SDS011;32291;52.010;4.446;2022-12-17T02:44:09;42.20;;;26.80;;
46563;SDS011;32291;52.010;4.446;2022-12-17T02:45:33;42.97;;;28.70;;
46563;SDS011;32291;52.010;4.446;2022-12-17T02:46:53;41.20;;;28.80;;
46563;SDS011;32291;52.010;4.446;2022-12-17T02:48:16;39.05;;;28.75;;
46563;SDS011;32291;52.010;4.446;2022-12-17T02:49:37;39.97;;;28.08;;
46563;SDS011;32291;52.010;4.446;2022-12-17T02:50:57;40.80;;;29.25;;
46563;SDS011;32291;52.010;4.446;2022-12-17T02:52:18;41.38;;;28.65;;
46563;SDS011;32291;52.010;4.446;2022-12-17T02:53:43;39.60;;;27.58;;
46563;SDS011;32291;52.010;4.446;2022-12-17T02:55:09;40.67;;;27.75;;
46563;SDS011;32291;52.010;4.446;2022-12-17T02:56:29;39.55;;;27.77;;
46563;SDS011;32291;52.010;4.446;2022-12-17T02:57:58;39.53;;;28.50;;
46563;SDS011;32291;52.010;4.446;2022-12-17T02:59:20;38.42;;;27.98;;
46563;SDS011;32291;52.010;4.446;2022-12-17T03:00:40;43.63;;;29.67;;
46563;SDS011;32291;52.010;4.446;2022-12-17T03:02:18;41.88;;;29.60;;
46563;SDS011;32291;52.010;4.446;2022-12-17T03:03:46;41.08;;;28.48;;
46563;SDS011;32291;52.010;4.446;2022-12-17T03:05:06;45.40;;;28.67;;
46563;SDS011;32291;52.010;4.446;2022-12-17T03:06:26;42.58;;;28.77;;
46563;SDS011;32291;52.010;4.446;2022-12-17T03:07:47;35.95;;;26.88;;
46563;SDS011;32291;52.010;4.446;2022-12-17T03:09:07;42.22;;;28.27;;
46563;SDS011;32291;52.010;4.446;2022-12-17T03:10:28;42.50;;;29.02;;
46563;SDS011;32291;52.010;4.446;2022-12-17T03:11:48;37.25;;;27.40;;
46563;SDS011;32291;52.010;4.446;2022-12-17T03:13:09;42.40;;;28.23;;
46563;SDS011;32291;52.010;4.446;2022-12-17T03:14:29;44.28;;;27.98;;
46563;SDS011;32291;52.010;4.446;2022-12-17T03:15:50;38.25;;;26.63;;
46563;SDS011;32291;52.010;4.446;2022-12-17T03:17:10;39.88;;;27.75;;
46563;SDS011;32291;52.010;4.446;2022-12-17T03:18:30;40.95;;;27.92;;
46563;SDS011;32291;52.010;4.446;2022-12-17T03:19:51;41.38;;;28.88;;
46563;SDS011;32291;52.010;4.446;2022-12-17T03:21:11;38.53;;;28.08;;
46563;SDS011;32291;52.010;4.446;2022-12-17T03:22:32;39.55;;;28.02;;
46563;SDS011;32291;52.010;4.446;2022-12-17T03:23:52;39.70;;;27.85;;
46563;SDS011;32291;52.010;4.446;2022-12-17T03:25:12;39.88;;;27.65;;
46563;SDS011;32291;52.010;4.446;2022-12-17T03:26:33;41.15;;;28.80;;
46563;SDS011;32291;52.010;4.446;2022-12-17T03:27:53;44.72;;;28.83;;
46563;SDS011;32291;52.010;4.446;2022-12-17T03:29:15;39.45;;;28.25;;
46563;SDS011;32291;52.010;4.446;2022-12-17T03:30:35;40.08;;;27.25;;
46563;SDS011;32291;52.010;4.446;2022-12-17T03:31:56;44.13;;;26.33;;
46563;SDS011;32291;52.010;4.446;2022-12-17T03:33:16;41.33;;;29.25;;
46563;SDS011;32291;52.010;4.446;2022-12-17T03:34:36;46.42;;;30.35;;
46563;SDS011;32291;52.010;4.446;2022-12-17T03:35:57;40.20;;;28.38;;
46563;SDS011;32291;52.010;4.446;2022-12-17T03:37:17;38.58;;;28.67;;
46563;SDS011;32291;52.010;4.446;2022-12-17T03:38:38;40.92;;;27.25;;
46563;SDS011;32291;52.010;4.446;2022-12-17T03:39:58;42.72;;;28.55;;
46563;SDS011;32291;52.010;4.446;2022-12-17T03:41:18;39.40;;;27.95;;
46563;SDS011;32291;52.010;4.446;2022-12-17T03:42:39;36.35;;;28.55;;
46563;SDS011;32291;52.010;4.446;2022-12-17T03:44:01;45.90;;;29.25;;
46563;SDS011;32291;52.010;4.446;2022-12-17T03:45:21;40.58;;;30.88;;
46563;SDS011;32291;52.010;4.446;2022-12-17T03:46:42;38.17;;;27.75;;
46563;SDS011;32291;52.010;4.446;2022-12-17T03:48:06;41.63;;;29.17;;
46563;SDS011;32291;52.010;4.446;2022-12-17T03:49:30;41.55;;;29.33;;
46563;SDS011;32291;52.010;4.446;2022-12-17T03:50:51;42.75;;;27.75;;
46563;SDS011;32291;52.010;4.446;2022-12-17T03:52:12;42.00;;;28.75;;
46563;SDS011;32291;52.010;4.446;2022-12-17T03:53:33;38.53;;;27.80;;
46563;SDS011;32291;52.010;4.446;2022-12-17T03:54:53;43.83;;;30.30;;
46563;SDS011;32291;52.010;4.446;2022-12-17T03:56:13;51.92;;;32.05;;
46563;SDS011;32291;52.010;4.446;2022-12-17T03:57:34;56.55;;;32.40;;
46563;SDS011;32291;52.010;4.446;2022-12-17T03:58:54;48.45;;;33.28;;
46563;SDS011;32291;52.010;4.446;2022-12-17T04:00:15;49.45;;;33.55;;
46563;SDS011;32291;52.010;4.446;2022-12-17T04:01:36;49.40;;;34.03;;
46563;SDS011;32291;52.010;4.446;2022-12-17T04:02:56;49.60;;;32.83;;
46563;SDS011;32291;52.010;4.446;2022-12-17T04:04:17;50.30;;;33.03;;
46563;SDS011;32291;52.010;4.446;2022-12-17T04:05:38;56.97;;;35.53;;
46563;SDS011;32291;52.010;4.446;2022-12-17T04:06:59;52.63;;;34.75;;
46563;SDS011;32291;52.010;4.446;2022-12-17T04:08:19;53.13;;;35.40;;
46563;SDS011;32291;52.010;4.446;2022-12-17T04:09:39;55.00;;;34.10;;
46563;SDS011;32291;52.010;4.446;2022-12-17T04:10:59;57.13;;;35.92;;
46563;SDS011;32291;52.010;4.446;2022-12-17T04:12:20;51.50;;;34.67;;
46563;SDS011;32291;52.010;4.446;2022-12-17T04:13:40;57.85;;;34.25;;
46563;SDS011;32291;52.010;4.446;2022-12-17T04:15:11;56.97;;;34.40;;
46563;SDS011;32291;52.010;4.446;2022-12-17T04:16:31;55.13;;;35.63;;
46563;SDS011;32291;52.010;4.446;2022-12-17T04:17:51;54.05;;;34.40;;
46563;SDS011;32291;52.010;4.446;2022-12-17T04:19:12;57.00;;;35.92;;
46563;SDS011;32291;52.010;4.446;2022-12-17T04:20:33;57.45;;;35.70;;
46563;SDS011;32291;52.010;4.446;2022-12-17T04:21:53;61.58;;;35.97;;
46563;SDS011;32291;52.010;4.446;2022-12-17T04:23:13;58.53;;;36.75;;
46563;SDS011;32291;52.010;4.446;2022-12-17T04:24:33;56.75;;;35.80;;
46563;SDS011;32291;52.010;4.446;2022-12-17T04:25:54;67.03;;;38.63;;
46563;SDS011;32291;52.010;4.446;2022-12-17T04:27:14;64.97;;;37.65;;
46563;SDS011;32291;52.010;4.446;2022-12-17T04:28:36;61.60;;;35.08;;
46563;SDS011;32291;52.010;4.446;2022-12-17T04:29:56;57.20;;;35.53;;
46563;SDS011;32291;52.010;4.446;2022-12-17T04:31:17;64.15;;;37.05;;
46563;SDS011;32291;52.010;4.446;2022-12-17T04:32:37;58.55;;;36.42;;
46563;SDS011;32291;52.010;4.446;2022-12-17T04:33:57;59.05;;;37.20;;
46563;SDS011;32291;52.010;4.446;2022-12-17T04:35:17;64.82;;;38.90;;
46563;SDS011;32291;52.010;4.446;2022-12-17T04:36:38;62.05;;;38.15;;
46563;SDS011;32291;52.010;4.446;2022-12-17T04:37:59;69.22;;;38.58;;
46563;SDS011;32291;52.010;4.446;2022-12-17T04:39:20;64.95;;;37.33;;
46563;SDS011;32291;52.010;4.446;2022-12-17T04:40:40;62.53;;;36.70;;
46563;SDS011;32291;52.010;4.446;2022-12-17T04:42:00;65.20;;;38.95;;
46563;SDS011;32291;52.010;4.446;2022-12-17T04:43:37;68.43;;;38.13;;
46563;SDS011;32291;52.010;4.446;2022-12-17T04:44:57;58.90;;;36.05;;
46563;SDS011;32291;52.010;4.446;2022-12-17T04:46:17;64.32;;;37.45;;
46563;SDS011;32291;52.010;4.446;2022-12-17T04:47:38;71.60;;;38.88;;
46563;SDS011;32291;52.010;4.446;2022-12-17T04:48:58;68.45;;;38.90;;
46563;SDS011;32291;52.010;4.446;2022-12-17T04:50:18;67.63;;;39.55;;
46563;SDS011;32291;52.010;4.446;2022-12-17T04:51:38;71.05;;;39.88;;
46563;SDS011;32291;52.010;4.446;2022-12-17T04:52:59;72.95;;;39.65;;
46563;SDS011;32291;52.010;4.446;2022-12-17T04:54:22;74.60;;;40.88;;
46563;SDS011;32291;52.010;4.446;2022-12-17T04:55:42;73.90;;;39.83;;
46563;SDS011;32291;52.010;4.446;2022-12-17T04:57:03;67.28;;;37.63;;
46563;SDS011;32291;52.010;4.446;2022-12-17T04:58:23;71.43;;;38.85;;
46563;SDS011;32291;52.010;4.446;2022-12-17T04:59:43;68.10;;;39.65;;
46563;SDS011;32291;52.010;4.446;2022-12-17T05:01:07;72.88;;;37.95;;
46563;SDS011;32291;52.010;4.446;2022-12-17T05:02:27;66.68;;;38.42;;
46563;SDS011;32291;52.010;4.446;2022-12-17T05:03:47;69.07;;;38.38;;
46563;SDS011;32291;52.010;4.446;2022-12-17T05:05:08;67.95;;;38.42;;
46563;SDS011;32291;52.010;4.446;2022-12-17T05:06:28;78.07;;;39.45;;
46563;SDS011;32291;52.010;4.446;2022-12-17T05:07:51;71.10;;;38.92;;
46563;SDS011;32291;52.010;4.446;2022-12-17T05:09:13;79.47;;;39.50;;
46563;SDS011;32291;52.010;4.446;2022-12-17T05:10:33;78.38;;;39.80;;
46563;SDS011;32291;52.010;4.446;2022-12-17T05:11:54;79.63;;;41.38;;
46563;SDS011;32291;52.010;4.446;2022-12-17T05:13:14;74.85;;;39.95;;
46563;SDS011;32291;52.010;4.446;2022-12-17T05:14:34;78.97;;;42.58;;
46563;SDS011;32291;52.010;4.446;2022-12-17T05:15:54;74.47;;;40.30;;
46563;SDS011;32291;52.010;4.446;2022-12-17T05:17:16;76.20;;;41.40;;
46563;SDS011;32291;52.010;4.446;2022-12-17T05:18:37;71.38;;;42.17;;
46563;SDS011;32291;52.010;4.446;2022-12-17T05:19:58;72.63;;;41.55;;
46563;SDS011;32291;52.010;4.446;2022-12-17T05:21:18;75.38;;;40.20;;
46563;SDS011;32291;52.010;4.446;2022-12-17T05:22:38;86.47;;;42.58;;
46563;SDS011;32291;52.010;4.446;2022-12-17T05:23:58;81.50;;;42.17;;
46563;SDS011;32291;52.010;4.446;2022-12-17T05:25:19;77.60;;;41.72;;
46563;SDS011;32291;52.010;4.446;2022-12-17T05:26:39;73.10;;;39.75;;
46563;SDS011;32291;52.010;4.446;2022-12-17T05:28:00;76.30;;;40.88;;
46563;SDS011;32291;52.010;4.446;2022-12-17T05:29:20;80.82;;;42.92;;
46563;SDS011;32291;52.010;4.446;2022-12-17T05:30:40;72.28;;;42.35;;
46563;SDS011;32291;52.010;4.446;2022-12-17T05:32:01;83.20;;;42.45;;
46563;SDS011;32291;52.010;4.446;2022-12-17T05:33:22;75.70;;;40.38;;
46563;SDS011;32291;52.010;4.446;2022-12-17T05:34:42;77.15;;;41.47;;
46563;SDS011;32291;52.010;4.446;2022-12-17T05:36:03;70.78;;;40.53;;
46563;SDS011;32291;52.010;4.446;2022-12-17T05:37:24;71.93;;;40.47;;
46563;SDS011;32291;52.010;4.446;2022-12-17T05:38:45;79.90;;;42.25;;
46563;SDS011;32291;52.010;4.446;2022-12-17T05:40:07;76.25;;;40.70;;
46563;SDS011;32291;52.010;4.446;2022-12-17T05:41:29;73.65;;;41.97;;
46563;SDS011;32291;52.010;4.446;2022-12-17T05:42:53;82.18;;;41.38;;
46563;SDS011;32291;52.010;4.446;2022-12-17T05:44:22;81.00;;;40.25;;
46563;SDS011;32291;52.010;4.446;2022-12-17T05:45:42;77.57;;;42.55;;
46563;SDS011;32291;52.010;4.446;2022-12-17T05:47:05;78.25;;;42.22;;
46563;SDS011;32291;52.010;4.446;2022-12-17T05:48:26;73.10;;;41.55;;
46563;SDS011;32291;52.010;4.446;2022-12-17T05:49:47;78.15;;;42.50;;
46563;SDS011;32291;52.010;4.446;2022-12-17T05:51:08;75.53;;;40.38;;
46563;SDS011;32291;52.010;4.446;2022-12-17T05:52:28;71.70;;;40.58;;
46563;SDS011;32291;52.010;4.446;2022-12-17T05:53:49;80.63;;;43.40;;
46563;SDS011;32291;52.010;4.446;2022-12-17T05:55:09;86.32;;;43.50;;
46563;SDS011;32291;52.010;4.446;2022-12-17T05:56:30;84.63;;;44.03;;
46563;SDS011;32291;52.010;4.446;2022-12-17T05:57:50;76.32;;;41.97;;
46563;SDS011;32291;52.010;4.446;2022-12-17T05:59:10;81.38;;;44.25;;
46563;SDS011;32291;52.010;4.446;2022-12-17T06:00:30;79.03;;;43.85;;
46563;SDS011;32291;52.010;4.446;2022-12-17T06:01:51;83.30;;;44.78;;
46563;SDS011;32291;52.010;4.446;2022-12-17T06:03:11;77.97;;;43.17;;
46563;SDS011;32291;52.010;4.446;2022-12-17T06:04:31;78.60;;;42.50;;
46563;SDS011;32291;52.010;4.446;2022-12-17T06:05:53;76.90;;;42.85;;
46563;SDS011;32291;52.010;4.446;2022-12-17T06:07:15;72.35;;;40.65;;
46563;SDS011;32291;52.010;4.446;2022-12-17T06:08:36;81.93;;;43.40;;
46563;SDS011;32291;52.010;4.446;2022-12-17T06:09:56;76.03;;;43.53;;
46563;SDS011;32291;52.010;4.446;2022-12-17T06:11:16;81.05;;;41.58;;
46563;SDS011;32291;52.010;4.446;2022-12-17T06:12:37;82.50;;;44.08;;
46563;SDS011;32291;52.010;4.446;2022-12-17T06:13:57;76.95;;;43.30;;
46563;SDS011;32291;52.010;4.446;2022-12-17T06:15:25;79.30;;;42.38;;
46563;SDS011;32291;52.010;4.446;2022-12-17T06:16:45;76.53;;;42.65;;
46563;SDS011;32291;52.010;4.446;2022-12-17T06:18:06;74.88;;;42.70;;
46563;SDS011;32291;52.010;4.446;2022-12-17T06:19:27;78.75;;;43.65;;
46563;SDS011;32291;52.010;4.446;2022-12-17T06:20:47;90.80;;;46.20;;
46563;SDS011;32291;52.010;4.446;2022-12-17T06:22:10;82.15;;;44.03;;
46563;SDS011;32291;52.010;4.446;2022-12-17T06:23:30;80.93;;;43.83;;
46563;SDS011;32291;52.010;4.446;2022-12-17T06:24:50;84.05;;;45.67;;
46563;SDS011;32291;52.010;4.446;2022-12-17T06:26:10;87.10;;;46.35;;
46563;SDS011;32291;52.010;4.446;2022-12-17T06:27:31;80.55;;;43.67;;
46563;SDS011;32291;52.010;4.446;2022-12-17T06:28:51;87.25;;;43.85;;
46563;SDS011;32291;52.010;4.446;2022-12-17T06:30:11;86.28;;;42.83;;
46563;SDS011;32291;52.010;4.446;2022-12-17T06:31:32;77.05;;;44.58;;
46563;SDS011;32291;52.010;4.446;2022-12-17T06:32:51;78.82;;;42.13;;
46563;SDS011;32291;52.010;4.446;2022-12-17T06:34:26;84.35;;;43.15;;
46563;SDS011;32291;52.010;4.446;2022-12-17T06:35:47;76.80;;;43.28;;
46563;SDS011;32291;52.010;4.446;2022-12-17T06:37:07;80.45;;;43.38;;
46563;SDS011;32291;52.010;4.446;2022-12-17T06:38:27;81.72;;;41.20;;
46563;SDS011;32291;52.010;4.446;2022-12-17T06:39:47;82.50;;;42.90;;
46563;SDS011;32291;52.010;4.446;2022-12-17T06:41:08;79.35;;;43.22;;
46563;SDS011;32291;52.010;4.446;2022-12-17T06:42:28;87.60;;;44.03;;
46563;SDS011;32291;52.010;4.446;2022-12-17T06:43:48;85.63;;;42.70;;
46563;SDS011;32291;52.010;4.446;2022-12-17T06:45:08;88.80;;;45.40;;
46563;SDS011;32291;52.010;4.446;2022-12-17T06:46:30;76.60;;;42.45;;
46563;SDS011;32291;52.010;4.446;2022-12-17T06:47:50;78.07;;;41.92;;
46563;SDS011;32291;52.010;4.446;2022-12-17T06:49:10;76.07;;;42.45;;
46563;SDS011;32291;52.010;4.446;2022-12-17T06:50:30;82.40;;;43.95;;
46563;SDS011;32291;52.010;4.446;2022-12-17T06:51:50;81.05;;;42.17;;
46563;SDS011;32291;52.010;4.446;2022-12-17T06:53:11;78.75;;;41.20;;
46563;SDS011;32291;52.010;4.446;2022-12-17T06:54:32;79.15;;;41.90;;
46563;SDS011;32291;52.010;4.446;2022-12-17T06:55:52;78.68;;;43.45;;
46563;SDS011;32291;52.010;4.446;2022-12-17T06:57:16;77.82;;;42.97;;
46563;SDS011;32291;52.010;4.446;2022-12-17T06:58:36;74.28;;;41.80;;
46563;SDS011;32291;52.010;4.446;2022-12-17T06:59:56;78.80;;;43.63;;
46563;SDS011;32291;52.010;4.446;2022-12-17T07:01:16;80.78;;;42.00;;
46563;SDS011;32291;52.010;4.446;2022-12-17T07:02:37;74.80;;;40.72;;
46563;SDS011;32291;52.010;4.446;2022-12-17T07:03:58;82.75;;;42.50;;
46563;SDS011;32291;52.010;4.446;2022-12-17T07:05:18;76.15;;;42.83;;
46563;SDS011;32291;52.010;4.446;2022-12-17T07:06:38;82.40;;;43.47;;
46563;SDS011;32291;52.010;4.446;2022-12-17T07:07:58;76.78;;;40.53;;
46563;SDS011;32291;52.010;4.446;2022-12-17T07:09:20;85.45;;;45.17;;
46563;SDS011;32291;52.010;4.446;2022-12-17T07:10:40;85.57;;;45.55;;
46563;SDS011;32291;52.010;4.446;2022-12-17T07:12:00;88.30;;;46.55;;
46563;SDS011;32291;52.010;4.446;2022-12-17T07:13:20;82.43;;;42.70;;
46563;SDS011;32291;52.010;4.446;2022-12-17T07:14:40;80.15;;;43.22;;
46563;SDS011;32291;52.010;4.446;2022-12-17T07:16:01;75.45;;;40.30;;
46563;SDS011;32291;52.010;4.446;2022-12-17T07:17:21;81.30;;;43.20;;
46563;SDS011;32291;52.010;4.446;2022-12-17T07:18:41;71.75;;;41.08;;
46563;SDS011;32291;52.010;4.446;2022-12-17T07:20:02;81.38;;;43.53;;
46563;SDS011;32291;52.010;4.446;2022-12-17T07:21:23;81.28;;;43.58;;
46563;SDS011;32291;52.010;4.446;2022-12-17T07:22:43;88.47;;;45.15;;
46563;SDS011;32291;52.010;4.446;2022-12-17T07:24:04;87.15;;;47.03;;
46563;SDS011;32291;52.010;4.446;2022-12-17T07:25:25;81.75;;;45.35;;
46563;SDS011;32291;52.010;4.446;2022-12-17T07:26:45;80.85;;;45.08;;
46563;SDS011;32291;52.010;4.446;2022-12-17T07:28:09;78.18;;;44.60;;
46563;SDS011;32291;52.010;4.446;2022-12-17T07:29:29;84.10;;;46.70;;
46563;SDS011;32291;52.010;4.446;2022-12-17T07:30:49;84.15;;;47.17;;
46563;SDS011;32291;52.010;4.446;2022-12-17T07:32:09;82.20;;;45.17;;
46563;SDS011;32291;52.010;4.446;2022-12-17T07:33:30;84.97;;;44.83;;
46563;SDS011;32291;52.010;4.446;2022-12-17T07:34:51;77.40;;;44.30;;
46563;SDS011;32291;52.010;4.446;2022-12-17T07:36:11;83.35;;;44.13;;
46563;SDS011;32291;52.010;4.446;2022-12-17T07:37:31;78.22;;;47.17;;
46563;SDS011;32291;52.010;4.446;2022-12-17T07:38:52;77.28;;;45.92;;
46563;SDS011;32291;52.010;4.446;2022-12-17T07:40:12;73.80;;;44.63;;
46563;SDS011;32291;52.010;4.446;2022-12-17T07:41:33;78.50;;;44.35;;
46563;SDS011;32291;52.010;4.446;2022-12-17T07:43:11;75.57;;;44.75;;
46563;SDS011;32291;52.010;4.446;2022-12-17T07:44:32;78.82;;;45.38;;
46563;SDS011;32291;52.010;4.446;2022-12-17T07:45:53;78.70;;;47.58;;
46563;SDS011;32291;52.010;4.446;2022-12-17T07:47:13;80.03;;;45.83;;
46563;SDS011;32291;52.010;4.446;2022-12-17T07:48:34;69.70;;;42.70;;
46563;SDS011;32291;52.010;4.446;2022-12-17T07:49:54;76.63;;;43.17;;
46563;SDS011;32291;52.010;4.446;2022-12-17T07:51:15;69.60;;;43.42;;
46563;SDS011;32291;52.010;4.446;2022-12-17T07:52:35;69.32;;;44.58;;
46563;SDS011;32291;52.010;4.446;2022-12-17T07:53:56;65.63;;;43.80;;
46563;SDS011;32291;52.010;4.446;2022-12-17T07:55:36;67.07;;;40.85;;
46563;SDS011;32291;52.010;4.446;2022-12-17T07:56:56;66.05;;;40.47;;
46563;SDS011;32291;52.010;4.446;2022-12-17T07:58:16;67.57;;;42.00;;
46563;SDS011;32291;52.010;4.446;2022-12-17T07:59:37;73.80;;;43.83;;
46563;SDS011;32291;52.010;4.446;2022-12-17T08:00:59;60.67;;;41.22;;
46563;SDS011;32291;52.010;4.446;2022-12-17T08:02:20;63.22;;;42.38;;
46563;SDS011;32291;52.010;4.446;2022-12-17T08:03:40;60.95;;;38.80;;
46563;SDS011;32291;52.010;4.446;2022-12-17T08:05:00;57.75;;;39.75;;
46563;SDS011;32291;52.010;4.446;2022-12-17T08:06:21;61.72;;;41.63;;
46563;SDS011;32291;52.010;4.446;2022-12-17T08:07:41;57.72;;;41.35;;
46563;SDS011;32291;52.010;4.446;2022-12-17T08:09:02;57.00;;;40.90;;
46563;SDS011;32291;52.010;4.446;2022-12-17T08:10:23;56.20;;;39.22;;